Time;durP1;ratioP1;P1;durP2;ratioP2;P2;SDS_P1;SDS_P2;PMS_P1;PMS_P2;Temp;Humidity;BMP_temperature;BMP_pressure;BME280_temperature;BME280_humidity;BME280_pressure;Samples;Min_cycle;Max_cycle;Signal;HPM_P1;HPM_P2
2021/12/22 05:47:15;;;;;;;26.55;11.10;;;;;;;-9.99;77.63;100607.73;1696051;82;21114;-35
2021/12/22 05:49:43;;;;;;;41.65;16.32;;;;;;;-9.93;77.54;100612.94;1682316;82;22316;-36
2021/12/22 05:52:10;;;;;;;25.52;14.73;;;;;;;-9.86;77.38;100618.15;1677979;83;21159;-43
2021/12/22 05:54:37;;;;;;;22.70;12.25;;;;;;;-9.77;77.35;100626.55;1664317;83;21633;-36
2021/12/22 05:57:05;;;;;;;24.37;10.20;;;;;;;-9.72;77.29;100626.56;1673176;83;21105;-35
2021/12/22 05:59:32;;;;;;;18.48;8.68;;;;;;;-9.61;77.31;100624.94;1699614;81;21534;-35
2021/12/22 06:01:59;;;;;;;17.30;9.03;;;;;;;-9.54;76.61;100622.16;1696348;83;21075;-43
2021/12/22 06:04:26;;;;;;;14.25;7.25;;;;;;;-9.54;76.49;100634.82;1686750;82;21028;-43
2021/12/22 06:06:52;;;;;;;17.20;8.03;;;;;;;-9.49;76.67;100633.56;1735687;80;21001;-36
2021/12/22 06:09:24;;;;;;;16.42;8.60;;;;;;;-9.45;76.21;100633.42;1713078;81;21107;-36
2021/12/22 06:11:51;;;;;;;21.75;9.05;;;;;;;-9.46;75.77;100633.81;1702740;81;21145;-37
2021/12/22 06:14:18;;;;;;;17.10;8.38;;;;;;;-9.47;76.00;100629.50;1696130;81;21062;-43
2021/12/22 06:16:45;;;;;;;17.92;8.93;;;;;;;-9.43;75.86;100635.73;1717630;80;21084;-36
2021/12/22 06:19:13;;;;;;;16.80;9.48;;;;;;;-9.46;75.57;100638.88;1712325;81;21317;-43
2021/12/22 06:21:41;;;;;;;14.85;7.75;;;;;;;-9.51;75.79;100640.13;1703680;81;21106;-43
2021/12/22 06:24:08;;;;;;;29.37;11.35;;;;;;;-9.51;75.91;100648.11;1694878;81;21114;-36
2021/12/22 06:26:35;;;;;;;21.33;9.50;;;;;;;-9.49;75.79;100651.69;1720836;80;21055;-43
2021/12/22 06:29:03;;;;;;;18.02;9.50;;;;;;;-9.48;75.87;100656.88;1719921;80;21577;-35
2021/12/22 06:31:31;;;;;;;16.15;8.65;;;;;;;-9.42;75.85;100659.04;1694890;81;21660;-35
2021/12/22 06:33:57;;;;;;;20.82;9.35;;;;;;;-9.37;75.80;100667.92;1719290;81;20968;-35
2021/12/22 06:36:24;;;;;;;15.60;8.18;;;;;;;-9.32;75.71;100665.78;1682191;82;21502;-35
2021/12/22 06:38:51;;;;;;;16.77;8.75;;;;;;;-9.27;75.54;100670.86;1686211;81;21073;-37
2021/12/22 06:41:18;;;;;;;23.15;10.80;;;;;;;-9.24;75.41;100673.63;1741725;80;21046;-36
2021/12/22 06:43:44;;;;;;;15.95;7.85;;;;;;;-9.22;75.47;100667.95;1701364;81;20977;-35
2021/12/22 06:46:11;;;;;;;15.50;7.58;;;;;;;-9.17;75.47;100675.53;1696829;81;21389;-42
2021/12/22 06:48:50;;;;;;;18.65;7.83;;;;;;;-9.13;75.28;100671.23;1693000;81;21595;-43
2021/12/22 06:59:45;;;;;;;19.02;8.73;;;;;;;-9.33;75.42;100682.64;1704470;81;22760;-42
2021/12/22 07:02:18;;;;;;;18.30;7.83;;;;;;;-9.38;76.01;100691.49;1697899;82;21076;-43
2021/12/22 07:04:45;;;;;;;22.98;9.68;;;;;;;-9.36;76.53;100686.16;1724232;80;21005;-36
2021/12/22 07:07:41;;;;;;;16.30;8.75;;;;;;;-9.31;76.73;100691.25;1664478;83;21031;-42
2021/12/22 07:10:31;;;;;;;15.05;7.97;;;;;;;-9.29;76.83;100688.45;1676471;82;21486;-43
2021/12/22 07:13:04;;;;;;;12.13;7.95;;;;;;;-9.24;77.12;100692.27;1670561;83;21012;-43
2021/12/22 07:16:14;;;;;;;15.70;8.08;;;;;;;-9.21;77.22;100691.66;1688333;83;21060;-35
2021/12/22 07:19:59;;;;;;;13.15;7.12;;;;;;;-9.18;77.24;100693.16;1677128;83;20983;-42
2021/12/22 07:22:26;;;;;;;9.15;5.47;;;;;;;-9.14;77.40;100699.00;1696809;82;21533;-41
2021/12/22 07:24:59;;;;;;;16.67;6.60;;;;;;;-9.10;77.33;100708.66;1707703;81;21607;-35
2021/12/22 07:27:32;;;;;;;14.18;7.47;;;;;;;-9.06;77.39;100712.31;1708184;81;21022;-42
2021/12/22 07:30:07;;;;;;;13.58;5.92;;;;;;;-9.08;77.30;100708.77;1699084;81;21026;-42
2021/12/22 07:32:40;;;;;;;18.98;8.63;;;;;;;-9.06;77.33;100717.38;1707680;81;21022;-36
2021/12/22 07:36:37;;;;;;;15.40;8.43;;;;;;;-9.07;77.22;100713.97;1699060;81;21468;-36
2021/12/22 07:39:34;;;;;;;17.92;8.93;;;;;;;-9.05;77.17;100714.08;1712310;81;21526;-36
2021/12/22 07:42:01;;;;;;;17.02;7.87;;;;;;;-9.03;77.11;100713.86;1715473;81;21109;-38
2021/12/22 07:44:29;;;;;;;17.57;8.08;;;;;;;-8.99;77.23;100724.36;1724934;80;21602;-43
2021/12/22 07:46:56;;;;;;;13.72;8.05;;;;;;;-8.97;76.82;100727.93;1723409;81;21074;-43
2021/12/22 07:49:23;;;;;;;17.35;8.83;;;;;;;-8.99;76.78;100726.01;1724227;80;21056;-36
2021/12/22 07:51:49;;;;;;;18.95;8.80;;;;;;;-8.96;77.06;100735.16;1741085;80;21724;-43
2021/12/22 07:54:16;;;;;;;16.23;7.87;;;;;;;-8.92;76.97;100730.47;1740970;80;20974;-36
2021/12/22 07:56:43;;;;;;;17.42;7.20;;;;;;;-8.88;76.75;100731.59;1725797;80;21024;-38
2021/12/22 07:59:09;;;;;;;17.40;7.90;;;;;;;-8.86;76.52;100730.98;1725068;80;21804;-36
2021/12/22 08:01:36;;;;;;;18.52;8.53;;;;;;;-8.85;76.17;100726.80;1727942;80;21121;-36
2021/12/22 08:04:04;;;;;;;13.03;7.15;;;;;;;-8.82;76.42;100736.30;1728018;80;21012;-36
2021/12/22 08:06:31;;;;;;;13.48;8.28;;;;;;;-8.78;76.31;100731.99;1743315;80;21061;-36
2021/12/22 08:08:58;;;;;;;15.85;7.37;;;;;;;-8.72;76.23;100731.23;1729055;80;21001;-43
2021/12/22 08:11:24;;;;;;;14.38;7.40;;;;;;;-8.69;75.87;100735.31;1731112;80;21596;-36
2021/12/22 08:13:51;;;;;;;13.65;6.87;;;;;;;-8.68;75.40;100735.81;1727341;80;21574;-36
2021/12/22 08:16:18;;;;;;;14.98;5.42;;;;;;;-8.71;75.24;100744.03;1690002;83;21692;-43
2021/12/22 08:18:45;;;;;;;13.18;5.95;;;;;;;-8.72;74.42;100741.00;1738916;80;20981;-36
2021/12/22 08:24:43;;;;;;;11.12;6.10;;;;;;;-8.56;73.65;100733.02;1845487;75;23200;-42
2021/12/22 08:34:39;;;;;;;10.60;5.53;;;;;;;-8.31;70.90;100732.05;1797474;78;20977;-43
2021/12/22 08:40:24;;;;;;;11.78;5.78;;;;;;;-8.19;69.98;100729.23;1798161;79;21330;-43
2021/12/22 08:43:15;;;;;;;10.38;6.28;;;;;;;-8.15;70.30;100727.84;1796821;78;21656;-36
2021/12/22 08:45:42;;;;;;;;;;;;;;;-8.04;70.26;100731.75;1796323;78;21063;-43
2021/12/22 08:48:08;;;;;;;15.43;6.20;;;;;;;-7.93;69.33;100728.80;1796350;79;20110;-36
2021/12/22 08:50:35;;;;;;;9.75;5.08;;;;;;;-7.83;69.72;100732.94;1795782;79;21500;-43
2021/12/22 08:53:02;;;;;;;13.65;5.30;;;;;;;-7.70;68.49;100733.55;1799675;78;21001;-43
2021/12/22 08:55:29;;;;;;;7.45;4.33;;;;;;;-7.61;67.34;100721.17;1795108;78;21001;-36
2021/12/22 08:57:56;;;;;;;8.93;4.83;;;;;;;-7.53;66.72;100725.22;1799344;78;21185;-38
2021/12/22 09:00:37;;;;;;;9.08;4.55;;;;;;;-7.44;66.14;100720.33;1798097;78;21596;-44
2021/12/22 09:03:24;;;;;;;5.40;2.60;;;;;;;-7.44;65.30;100721.22;1801951;78;21445;-36
2021/12/22 09:06:14;;;;;;;8.85;4.90;;;;;;;-7.52;64.35;100709.58;1790926;78;22176;-42
2021/12/22 09:12:47;;;;;;;7.17;4.47;;;;;;;-7.53;64.49;100702.73;1789910;78;21690;-36
2021/12/22 09:15:22;;;;;;;9.68;3.65;;;;;;;-7.38;64.57;100704.28;1772130;78;21013;-36
2021/12/22 09:18:01;;;;;;;8.38;4.05;;;;;;;-7.16;64.31;100700.47;1799977;78;21412;-36
2021/12/22 09:21:13;;;;;;;11.83;5.05;;;;;;;-7.11;65.00;100706.41;1795987;78;21682;-43
2021/12/22 09:24:47;;;;;;;7.72;3.37;;;;;;;-7.12;65.63;100701.22;1794584;79;21063;-43
2021/12/22 09:28:01;;;;;;;6.20;3.30;;;;;;;-7.23;61.42;100700.39;1797885;78;21599;-41
2021/12/22 09:30:36;;;;;;;5.30;1.67;;;;;;;-7.42;61.16;100703.53;1795777;79;21483;-36
2021/12/22 09:33:04;;;;;;;5.10;3.72;;;;;;;-7.62;60.90;100707.96;1796540;78;21021;-36
2021/12/22 09:35:31;;;;;;;4.80;2.45;;;;;;;-7.75;61.69;100706.89;1798458;77;21464;-38
2021/12/22 09:37:58;;;;;;;5.60;3.25;;;;;;;-7.80;61.91;100700.17;1795930;78;21032;-36
2021/12/22 09:40:25;;;;;;;4.62;2.85;;;;;;;-7.81;61.75;100711.11;1796395;78;21773;-37
2021/12/22 09:42:53;;;;;;;6.78;2.92;;;;;;;-7.80;62.54;100706.52;1798811;78;21015;-42
2021/12/22 09:45:23;;;;;;;8.90;3.52;;;;;;;-7.77;62.68;100715.64;1792089;77;21024;-35
2021/12/22 09:50:46;;;;;;;5.45;2.92;;;;;;;-7.87;62.57;100703.89;1793273;78;21774;-37
2021/12/22 09:53:07;;;;;;;7.03;3.77;;;;;;;-7.96;63.16;100710.77;1794575;78;21416;-36
2021/12/22 09:55:34;;;;;;;5.92;3.02;;;;;;;-8.04;64.01;100709.28;1797262;78;21025;-44
2021/12/22 09:58:04;;;;;;;2.65;1.62;;;;;;;-8.09;63.70;100701.28;1796250;79;21040;-35
2021/12/22 10:00:33;;;;;;;6.72;1.87;;;;;;;-8.15;60.66;100703.72;1792775;78;21103;-38
2021/12/22 10:03:13;;;;;;;3.70;2.02;;;;;;;-8.22;60.61;100716.31;1760589;79;21111;-43
2021/12/22 10:06:16;;;;;;;7.80;2.85;;;;;;;-8.30;60.09;100717.32;1764923;79;21117;-45
2021/12/22 10:24:49;;;;;;;3.20;2.15;;;;;;;-8.62;59.83;100725.78;1794115;78;21564;-36
2021/12/22 10:28:47;;;;;;;5.65;2.55;;;;;;;-8.65;60.93;100724.63;1790817;78;21465;-36
2021/12/22 10:31:45;;;;;;;3.20;1.85;;;;;;;-8.62;61.64;100723.24;1788565;77;21038;-43
2021/12/22 10:34:19;;;;;;;6.60;3.27;;;;;;;-8.58;60.30;100723.09;1769276;79;21347;-36
2021/12/22 10:37:00;;;;;;;5.15;2.20;;;;;;;-8.60;61.29;100720.44;1791211;78;21024;-43
2021/12/22 10:39:34;;;;;;;4.35;2.98;;;;;;;-8.53;61.67;100723.48;1792966;77;21510;-35
2021/12/22 10:42:06;;;;;;;3.95;2.33;;;;;;;-8.48;61.84;100731.09;1791121;78;21120;-43
2021/12/22 10:44:41;;;;;;;5.15;2.12;;;;;;;-8.45;61.18;100718.28;1798375;77;21032;-43
2021/12/22 10:47:23;;;;;;;5.50;2.12;;;;;;;-8.49;60.70;100717.91;1795015;78;21009;-43
2021/12/22 10:50:03;;;;;;;4.03;2.58;;;;;;;-8.53;61.44;100718.41;1798516;77;21528;-36
2021/12/22 10:52:31;;;;;;;5.08;2.80;;;;;;;-8.51;60.98;100719.05;1795617;77;21607;-43
2021/12/22 10:55:34;;;;;;;4.25;1.82;;;;;;;-8.52;60.12;100720.17;1794264;77;20962;-42
2021/12/22 10:58:01;;;;;;;4.97;2.62;;;;;;;-8.59;60.23;100727.28;1795857;77;21079;-43
2021/12/22 11:00:29;;;;;;;6.70;3.12;;;;;;;-8.63;61.16;100720.20;1805126;77;21092;-42
2021/12/22 11:03:13;;;;;;;7.05;3.95;;;;;;;-8.65;61.35;100717.90;1801993;77;20996;-43
2021/12/22 11:05:47;;;;;;;6.08;3.40;;;;;;;-8.63;61.66;100732.89;1803403;78;21009;-43
2021/12/22 11:08:31;;;;;;;5.85;3.25;;;;;;;-8.67;60.01;100721.97;1793927;77;21001;-36
2021/12/22 11:11:36;;;;;;;6.12;3.12;;;;;;;-8.72;60.53;100723.23;1791460;78;21088;-36
2021/12/22 11:14:27;;;;;;;7.03;2.98;;;;;;;-8.78;60.58;100718.04;1798674;78;21064;-43
2021/12/22 11:17:11;;;;;;;6.50;3.10;;;;;;;-8.86;59.93;100719.57;1796902;78;21071;-43
2021/12/22 11:20:04;;;;;;;4.45;2.15;;;;;;;-8.94;60.08;100717.14;1723293;78;21088;-36
2021/12/22 11:23:09;;;;;;;2.42;1.90;;;;;;;-9.05;60.47;100714.08;1798344;78;21851;-35
2021/12/22 11:25:52;;;;;;;4.63;2.80;;;;;;;-9.13;60.11;100713.07;1792563;78;21019;-37
2021/12/22 11:29:20;;;;;;;5.25;3.00;;;;;;;-9.14;59.44;100720.17;1792082;78;22159;-36
2021/12/22 11:36:33;;;;;;;20.45;10.03;;;;;;;-8.71;59.08;100725.01;1793763;78;21021;-46
2021/12/22 11:39:36;;;;;;;5.90;3.12;;;;;;;-8.44;59.40;100730.20;1795944;78;21627;-35
2021/12/22 11:42:44;;;;;;;8.58;2.60;;;;;;;-8.11;58.15;100732.03;1789315;78;21352;-36
2021/12/22 11:45:24;;;;;;;4.90;2.22;;;;;;;-7.96;58.19;100731.08;1791146;78;22091;-43
2021/12/22 11:47:58;;;;;;;9.40;3.15;;;;;;;-7.89;57.92;100740.08;1793314;78;21642;-35
2021/12/22 11:51:19;;;;;;;6.12;3.33;;;;;;;-7.93;57.97;100738.97;1793509;78;21642;-44
2021/12/22 11:54:27;;;;;;;6.97;3.35;;;;;;;-7.99;57.82;100735.94;1790948;78;21401;-43
2021/12/22 11:57:18;;;;;;;8.28;3.37;;;;;;;-7.96;58.41;100743.78;1798210;78;21001;-45
2021/12/22 11:59:52;;;;;;;4.60;2.80;;;;;;;-7.89;58.15;100742.23;1793146;78;21283;-36
2021/12/22 12:02:38;;;;;;;8.95;4.10;;;;;;;-7.93;58.40;100744.05;1770591;78;21029;-35
2021/12/22 12:05:21;;;;;;;5.25;3.02;;;;;;;-7.98;59.05;100742.78;1760805;78;21048;-35
2021/12/22 12:08:02;;;;;;;5.80;3.60;;;;;;;-7.95;59.12;100744.67;1790477;78;21642;-35
2021/12/22 12:10:54;;;;;;;5.22;2.50;;;;;;;-7.74;58.57;100745.12;1785893;78;21459;-42
2021/12/22 12:14:01;;;;;;;4.22;2.85;;;;;;;-7.74;58.57;100745.12;1766105;78;21513;-42
2021/12/22 12:22:42;;;;;;;6.53;3.42;;;;;;;-7.92;59.23;100761.05;1787849;78;21570;-35
2021/12/22 12:25:35;;;;;;;6.95;3.60;;;;;;;-8.00;59.51;100758.64;1781212;78;21103;-42
2021/12/22 12:28:24;;;;;;;6.33;3.08;;;;;;;-8.05;59.47;100760.84;1734996;78;21072;-35
2021/12/22 12:33:45;;;;;;;8.25;4.35;;;;;;;-8.11;59.58;100765.42;1793035;78;21702;-45
2021/12/22 12:36:18;;;;;;;3.67;2.55;;;;;;;-8.14;60.09;100765.16;1747065;78;21116;-43
2021/12/22 12:38:52;;;;;;;6.65;3.67;;;;;;;-8.19;59.82;100770.25;1762493;78;21023;-37
2021/12/22 12:41:31;;;;;;;5.30;3.20;;;;;;;-8.24;60.26;100771.52;1793459;78;21465;-43
2021/12/22 12:44:19;;;;;;;5.55;2.83;;;;;;;-8.27;60.62;100773.44;1790731;78;21368;-38
2021/12/22 12:47:01;;;;;;;6.50;2.37;;;;;;;-8.28;59.46;100778.02;1674389;82;21591;-42
2021/12/22 12:49:33;;;;;;;6.30;2.83;;;;;;;-8.41;59.41;100782.86;1698442;82;21196;-42
2021/12/22 12:52:06;;;;;;;9.45;3.45;;;;;;;-8.55;58.89;100783.38;1666126;83;21070;-35
2021/12/22 12:54:39;;;;;;;7.60;3.75;;;;;;;-8.67;59.07;100787.94;1644566;85;21601;-36
2021/12/22 12:57:14;;;;;;;8.38;3.58;;;;;;;-8.72;58.74;100787.93;1657387;85;21573;-44
2021/12/22 12:59:54;;;;;;;7.25;3.77;;;;;;;-8.78;58.53;100785.27;1660836;84;21503;-36
2021/12/22 13:02:27;;;;;;;6.58;4.20;;;;;;;-8.89;58.94;100790.31;1703727;83;22120;-37
2021/12/22 13:05:07;;;;;;;6.37;3.83;;;;;;;-8.94;59.44;100794.48;1703637;82;20997;-38
2021/12/22 13:07:35;;;;;;;5.92;3.37;;;;;;;-8.95;59.86;100788.91;1711154;82;21025;-37
2021/12/22 13:10:12;;;;;;;8.95;4.12;;;;;;;-8.93;60.65;100792.11;1707298;83;21000;-37
2021/12/22 13:18:05;;;;;;;5.10;2.52;;;;;;;-8.85;61.73;100797.81;1710618;82;21900;-37
2021/12/22 13:20:37;;;;;;;5.22;2.40;;;;;;;-8.77;61.31;100802.25;1708359;82;21056;-44
2021/12/22 13:23:06;;;;;;;3.85;2.35;;;;;;;-8.76;61.06;100801.48;1705868;79;21130;-43
2021/12/22 13:25:36;;;;;;;3.47;2.40;;;;;;;-8.80;60.73;100803.28;1818552;77;20981;-43
2021/12/22 13:28:18;;;;;;;2.30;1.90;;;;;;;-8.84;60.77;100805.93;1812094;78;21131;-37
2021/12/22 13:30:54;;;;;;;6.03;2.83;;;;;;;-8.87;60.12;100802.77;1798326;79;21040;-44
2021/12/22 13:33:31;;;;;;;4.62;3.30;;;;;;;-8.90;60.59;100810.10;1779355;79;21056;-37
2021/12/22 13:36:03;;;;;;;6.28;3.22;;;;;;;-8.87;61.35;100810.73;1817576;78;21020;-36
2021/12/22 13:38:48;;;;;;;8.05;3.40;;;;;;;-8.87;60.56;100813.27;1822579;78;21559;-43
2021/12/22 13:41:20;;;;;;;10.25;3.67;;;;;;;-8.86;60.59;100813.80;1791589;79;21055;-37
2021/12/22 13:43:56;;;;;;;4.40;2.67;;;;;;;-8.86;60.84;100814.69;1796210;79;21017;-37
2021/12/22 13:46:32;;;;;;;4.53;2.00;;;;;;;-8.87;61.67;100817.98;1803059;79;21021;-44
2021/12/22 13:49:13;;;;;;;5.67;2.37;;;;;;;-8.89;61.76;100826.20;1809885;79;21017;-44
2021/12/22 13:51:43;;;;;;;8.90;4.45;;;;;;;-8.90;61.94;100821.52;1811312;79;22095;-37
2021/12/22 13:54:14;;;;;;;7.37;3.52;;;;;;;-8.89;62.24;100823.67;1793158;79;21038;-36
2021/12/22 13:56:42;;;;;;;13.98;6.10;;;;;;;-8.89;62.38;100821.13;1810516;79;21625;-43
2021/12/22 13:59:15;;;;;;;12.55;6.72;;;;;;;-8.90;62.71;100816.82;1805291;79;21032;-44
2021/12/22 14:01:46;;;;;;;6.12;2.72;;;;;;;-8.93;63.27;100822.89;1809301;77;21021;-37
2021/12/22 14:04:37;;;;;;;5.78;2.45;;;;;;;-8.94;63.30;100818.58;1808856;79;21067;-37
2021/12/22 14:07:17;;;;;;;6.92;2.75;;;;;;;-8.97;63.53;100818.34;1796277;79;21072;-36
2021/12/22 14:09:48;;;;;;;11.33;6.17;;;;;;;-8.99;63.87;100829.97;1800930;79;21000;-37
2021/12/22 14:12:25;;;;;;;18.15;6.72;;;;;;;-9.02;64.08;100829.73;1807195;79;21016;-43
2021/12/22 14:14:54;;;;;;;11.43;5.55;;;;;;;-9.04;64.13;100823.61;1808868;79;20997;-44
2021/12/22 14:17:41;;;;;;;10.82;5.42;;;;;;;-9.07;64.51;100839.47;1805153;79;21432;-41
2021/12/22 14:20:18;;;;;;;3.42;2.40;;;;;;;-9.09;65.01;100827.44;1766278;80;21024;-43
2021/12/22 14:22:49;;;;;;;4.55;2.85;;;;;;;-9.13;65.27;100832.61;1758648;80;21017;-43
